createdAt,value
2019-05-12T07:08:26.583Z,63.89
2019-05-12T07:09:25.076Z,63.89
2019-05-12T07:10:38.526Z,63.35
2019-05-12T07:11:20.629Z,62.74
2019-05-12T07:12:24.865Z,62.84
2019-05-12T07:13:29.263Z,63.04
2019-05-12T07:14:22.885Z,62.54
2019-05-12T07:15:20.689Z,62.33
2019-05-12T07:16:25.120Z,62.23
2019-05-12T07:17:20.550Z,62.51
2019-05-12T07:18:24.411Z,62.61
2019-05-12T07:19:22.687Z,60.97
2019-05-12T07:20:19.515Z,60.16
2019-05-12T07:21:22.113Z,59.75
2019-05-12T07:22:22.686Z,59.34
2019-05-12T07:23:25.884Z,59.11
2019-05-12T07:24:20.471Z,59.11
2019-05-12T07:25:22.848Z,58.06
2019-05-12T07:26:20.458Z,58.67
2019-05-12T07:27:32.256Z,57.93
2019-05-12T07:28:20.427Z,58.03
2019-05-12T07:29:19.413Z,58.34
2019-05-12T07:30:19.409Z,56.71
2019-05-12T07:31:19.404Z,56.71
2019-05-12T07:32:21.870Z,55.87
2019-05-12T07:33:20.367Z,56.91
2019-05-12T07:34:19.357Z,56.81
2019-05-12T07:35:19.347Z,56.50
2019-05-12T07:36:19.347Z,56.50
2019-05-12T07:37:19.325Z,55.89
2019-05-12T07:38:21.511Z,55.89
2019-05-12T07:39:19.302Z,55.58
2019-05-12T07:40:25.657Z,54.39
2019-05-12T07:41:20.290Z,55.28
2019-05-12T07:42:25.124Z,54.87
2019-05-12T07:43:20.796Z,54.97
2019-05-12T07:44:22.035Z,55.28
2019-05-12T07:45:22.362Z,55.38
2019-05-12T07:46:19.232Z,55.38
2019-05-12T07:47:24.638Z,56.27
2019-05-12T07:48:20.201Z,54.85
2019-05-12T07:49:22.002Z,54.94
2019-05-12T07:50:23.902Z,55.63
2019-05-12T07:51:20.173Z,53.09
2019-05-12T07:52:19.153Z,53.90
2019-05-12T07:53:19.167Z,54.44
2019-05-12T07:54:19.130Z,53.09
2019-05-12T07:55:19.118Z,54.11
2019-05-12T07:56:19.664Z,53.90
2019-05-12T07:57:20.097Z,53.72
2019-05-12T07:58:19.605Z,52.50
2019-05-12T07:59:19.075Z,53.55
2019-05-12T08:00:25.225Z,53.85
2019-05-12T08:01:20.065Z,54.05
2019-05-12T08:02:23.277Z,54.57
2019-05-12T08:03:21.406Z,54.94
2019-05-12T08:04:19.017Z,55.74
2019-05-12T08:05:21.250Z,55.02
2019-05-12T08:06:18.997Z,54.51
2019-05-12T08:07:19.729Z,55.02
2019-05-12T08:08:19.974Z,54.21
2019-05-12T08:09:24.141Z,53.16
2019-05-12T08:10:20.326Z,52.55
2019-05-12T08:11:18.944Z,52.66
2019-05-12T08:12:21.020Z,51.84
2019-05-12T08:13:18.926Z,52.33
2019-05-12T08:14:27.780Z,52.22
2019-05-12T08:15:19.914Z,51.79
2019-05-12T08:16:19.482Z,50.67
2019-05-12T08:17:19.883Z,49.73
2019-05-12T08:18:18.871Z,48.80
2019-05-12T08:19:23.704Z,50.93
2019-05-12T08:20:19.837Z,50.20
2019-05-12T08:21:18.827Z,48.87
2019-05-12T08:22:24.039Z,48.44
2019-05-12T08:23:19.801Z,48.75
2019-05-12T08:24:18.793Z,48.85
2019-05-12T08:25:23.680Z,47.10
2019-05-12T08:26:19.768Z,47.99
2019-05-12T08:27:18.766Z,48.10
2019-05-12T08:28:19.584Z,48.48
2019-05-12T08:29:21.485Z,46.33
2019-05-12T08:30:18.723Z,46.91
2019-05-12T08:31:23.568Z,46.91
2019-05-12T08:32:20.354Z,45.19
2019-05-12T08:33:18.691Z,46.02
2019-05-12T08:34:18.677Z,46.63
2019-05-12T08:35:25.573Z,47.24
2019-05-12T08:36:19.656Z,46.75
2019-05-12T08:37:18.657Z,47.08
2019-05-12T08:38:18.632Z,47.38
2019-05-12T08:39:22.814Z,46.88
2019-05-12T08:40:19.610Z,47.10
2019-05-12T08:41:18.599Z,47.51
2019-05-12T08:42:18.597Z,48.93
2019-05-12T08:43:18.575Z,47.30
2019-05-12T08:44:24.590Z,48.32
2019-05-12T08:45:27.395Z,49.33
2019-05-12T08:46:19.539Z,49.66
2019-05-12T08:47:18.541Z,48.63
2019-05-12T08:48:21.648Z,47.33
2019-05-12T08:49:19.506Z,47.63
2019-05-12T08:50:25.587Z,48.14
2019-05-12T08:51:20.248Z,48.14
2019-05-12T08:52:18.486Z,48.75
2019-05-12T08:53:20.673Z,47.96
2019-05-12T08:54:18.452Z,48.77
2019-05-12T08:55:25.106Z,48.27
2019-05-12T08:56:23.133Z,48.77
2019-05-12T08:57:19.426Z,49.79
2019-05-12T08:58:30.214Z,49.26
2019-05-12T08:59:24.190Z,48.06
2019-05-12T09:00:19.380Z,47.66
2019-05-12T09:01:20.357Z,48.57
2019-05-12T09:02:19.372Z,48.80
2019-05-12T09:03:20.616Z,48.90
2019-05-12T09:04:19.339Z,49.00
2019-05-12T09:05:18.326Z,48.47
2019-05-12T09:06:19.870Z,47.22
2019-05-12T09:07:18.380Z,48.06
2019-05-12T09:08:18.299Z,47.43
2019-05-12T09:09:18.279Z,47.10
2019-05-12T09:10:18.268Z,46.67
2019-05-12T09:11:18.257Z,46.75
2019-05-12T09:12:18.245Z,47.16
2019-05-12T09:13:18.242Z,45.11
2019-05-12T09:14:18.224Z,46.71
2019-05-12T09:15:18.215Z,45.04
2019-05-12T09:16:18.220Z,45.45
2019-05-12T09:17:18.188Z,44.32
2019-05-12T09:18:18.979Z,44.82
2019-05-12T09:19:23.725Z,43.69
2019-05-12T09:20:19.158Z,43.46
2019-05-12T09:21:18.144Z,43.85
2019-05-12T09:22:20.997Z,44.46
2019-05-12T09:23:18.132Z,44.25
2019-05-12T09:24:21.832Z,43.43
2019-05-12T09:25:19.099Z,42.49
2019-05-12T09:26:18.578Z,43.20
2019-05-12T09:27:19.081Z,42.40
2019-05-12T09:28:18.074Z,42.18
2019-05-12T09:29:18.056Z,41.28
2019-05-12T09:30:18.048Z,40.88
2019-05-12T09:31:19.514Z,42.40
2019-05-12T09:32:19.023Z,41.97
2019-05-12T09:33:21.383Z,40.96
2019-05-12T09:34:19.001Z,41.77
2019-05-12T09:35:17.988Z,40.96
2019-05-12T09:36:20.042Z,41.14
2019-05-12T09:37:17.971Z,41.22
2019-05-12T09:38:22.873Z,40.32
2019-05-12T09:39:18.945Z,39.61
2019-05-12T09:40:20.611Z,40.20
2019-05-12T09:41:17.926Z,40.00
2019-05-12T09:42:19.252Z,40.30
2019-05-12T09:43:18.913Z,41.00
2019-05-12T09:44:20.422Z,40.28
2019-05-12T09:45:18.880Z,39.68
2019-05-12T09:46:17.868Z,39.36
2019-05-12T09:47:23.529Z,39.36
2019-05-12T09:48:18.857Z,38.85
2019-05-12T09:49:22.745Z,39.36
2019-05-12T09:50:20.450Z,39.43
2019-05-12T09:51:17.818Z,40.34
2019-05-12T09:52:22.130Z,38.92
2019-05-12T09:53:18.803Z,38.29
2019-05-12T09:54:17.783Z,38.60
2019-05-12T09:55:17.778Z,38.48
2019-05-12T09:56:17.766Z,37.07
2019-05-12T09:57:17.752Z,37.57
2019-05-12T09:58:23.050Z,36.95
2019-05-12T09:59:22.902Z,36.15
2019-05-12T10:00:18.727Z,36.63
2019-05-12T10:01:17.748Z,35.73
2019-05-12T10:02:20.757Z,35.64
2019-05-12T10:03:17.698Z,34.66
2019-05-12T10:04:19.607Z,35.06
2019-05-12T10:05:17.669Z,35.68
2019-05-12T10:06:21.167Z,36.69
2019-05-12T10:07:17.647Z,35.66
2019-05-12T10:08:17.646Z,35.85
2019-05-12T10:09:19.851Z,36.92
2019-05-12T10:10:17.629Z,37.22
2019-05-12T10:11:20.773Z,33.98
2019-05-12T10:12:17.593Z,33.98
2019-05-12T10:13:20.255Z,33.46
2019-05-12T10:14:18.572Z,33.94
2019-05-12T10:15:18.739Z,33.73
2019-05-12T10:16:18.552Z,34.01
2019-05-12T10:17:20.456Z,34.00
2019-05-12T10:18:18.538Z,33.00
2019-05-12T10:19:17.521Z,33.58
2019-05-12T10:20:17.510Z,33.06
2019-05-12T10:21:17.702Z,32.65
2019-05-12T10:22:17.488Z,31.37
2019-05-12T10:23:20.680Z,33.26
2019-05-12T10:24:18.468Z,31.46
2019-05-12T10:25:17.457Z,32.26
2019-05-12T10:26:17.496Z,31.46
2019-05-12T10:27:21.144Z,31.37
2019-05-12T10:28:18.438Z,30.96
2019-05-12T10:29:20.612Z,31.37
2019-05-12T10:30:17.775Z,31.46
2019-05-12T10:31:18.818Z,32.17
2019-05-12T10:32:17.387Z,31.04
2019-05-12T10:33:17.376Z,31.92
2019-05-12T10:34:17.372Z,31.51
2019-05-12T10:35:22.059Z,31.40
2019-05-12T10:36:18.341Z,31.39
2019-05-12T10:37:19.362Z,29.78
2019-05-12T10:38:18.322Z,30.38
2019-05-12T10:39:17.324Z,30.51
2019-05-12T10:40:17.307Z,30.74
2019-05-12T10:41:17.291Z,32.03
2019-05-12T10:42:17.287Z,32.23
2019-05-12T10:43:17.273Z,33.01
2019-05-12T10:44:17.279Z,32.82
2019-05-12T10:45:20.447Z,32.50
2019-05-12T10:46:18.423Z,31.29
2019-05-12T10:47:18.244Z,31.79
2019-05-12T10:48:17.223Z,30.48
2019-05-12T10:49:17.224Z,30.29
2019-05-12T10:50:17.200Z,31.18
2019-05-12T10:51:17.191Z,30.69
2019-05-12T10:52:17.180Z,31.51
2019-05-12T10:53:17.990Z,32.48
2019-05-12T10:54:17.170Z,32.50
2019-05-12T10:55:17.151Z,32.27
2019-05-12T10:56:17.140Z,30.69
2019-05-12T10:57:17.134Z,29.43
2019-05-12T10:58:17.135Z,30.85
2019-05-12T10:59:28.184Z,31.67
2019-05-12T11:00:25.164Z,31.40
2019-05-12T11:01:18.087Z,31.52
2019-05-12T11:02:20.490Z,32.11
2019-05-12T11:03:18.067Z,33.20
2019-05-12T11:04:17.064Z,32.88
2019-05-12T11:05:21.107Z,31.78
2019-05-12T11:06:18.036Z,32.78
2019-05-12T11:07:17.026Z,33.16
2019-05-12T11:08:17.013Z,30.93
2019-05-12T11:09:21.346Z,30.63
2019-05-12T11:10:20.114Z,31.22
2019-05-12T11:11:16.985Z,31.21
2019-05-12T11:12:19.059Z,31.70
2019-05-12T11:13:18.227Z,30.40
2019-05-12T11:14:20.230Z,29.88
2019-05-12T11:15:17.941Z,30.68
2019-05-12T11:16:17.152Z,29.61
2019-05-12T11:17:17.921Z,29.72
2019-05-12T11:18:20.737Z,30.22
2019-05-12T11:19:17.918Z,29.55
2019-05-12T11:20:16.890Z,30.55
2019-05-12T11:21:16.881Z,30.85
2019-05-12T11:22:16.869Z,30.05
2019-05-12T11:23:16.866Z,31.96
2019-05-12T11:24:16.857Z,30.88
2019-05-12T11:25:16.840Z,30.60
2019-05-12T11:26:16.826Z,31.74
2019-05-12T11:27:16.823Z,32.44
2019-05-12T11:28:16.808Z,32.35
2019-05-12T11:29:16.814Z,32.47
2019-05-12T11:30:16.786Z,33.07
2019-05-12T11:31:16.774Z,32.90
2019-05-12T11:32:17.800Z,32.69
2019-05-12T11:33:16.756Z,33.16
2019-05-12T11:34:16.746Z,33.33
2019-05-12T11:35:16.748Z,34.21
2019-05-12T11:36:16.727Z,32.68
2019-05-12T11:37:16.713Z,31.85
2019-05-12T11:38:16.701Z,30.63
2019-05-12T11:39:16.697Z,30.05
2019-05-12T11:40:16.689Z,29.17
2019-05-12T11:41:20.250Z,29.93
2019-05-12T11:42:16.657Z,31.96
2019-05-12T11:43:16.649Z,32.17
2019-05-12T11:44:16.638Z,32.87
2019-05-12T11:45:16.644Z,33.26
2019-05-12T11:46:16.616Z,33.23
2019-05-12T11:47:23.922Z,33.20
2019-05-12T11:48:17.594Z,32.26
2019-05-12T11:49:21.767Z,31.55
2019-05-12T11:50:17.585Z,30.54
2019-05-12T11:51:20.857Z,29.93
2019-05-12T11:52:19.381Z,27.81
2019-05-12T11:53:16.542Z,29.61
2019-05-12T11:54:16.532Z,29.43
2019-05-12T11:55:21.291Z,29.85
2019-05-12T11:56:17.512Z,30.27
2019-05-12T11:57:20.161Z,29.75
2019-05-12T11:58:17.493Z,30.45
2019-05-12T11:59:16.480Z,30.83
2019-05-12T12:00:16.483Z,29.82
2019-05-12T12:01:16.459Z,29.69
2019-05-12T12:02:20.242Z,28.91
2019-05-12T12:03:18.332Z,28.52
2019-05-12T12:04:16.435Z,30.49
2019-05-12T12:05:16.432Z,29.78
2019-05-12T12:06:16.408Z,29.38
2019-05-12T12:07:16.414Z,29.90
2019-05-12T12:08:16.387Z,30.44
2019-05-12T12:09:18.810Z,29.86
2019-05-12T12:10:16.373Z,31.49
2019-05-12T12:11:24.334Z,32.01
2019-05-12T12:12:17.342Z,31.32
2019-05-12T12:13:19.336Z,31.73
2019-05-12T12:14:17.323Z,31.74
2019-05-12T12:15:20.389Z,31.35
2019-05-12T12:16:17.299Z,32.44
2019-05-12T12:17:16.299Z,31.52
2019-05-12T12:18:16.280Z,30.71
2019-05-12T12:19:16.269Z,27.81
2019-05-12T12:20:22.467Z,31.01
2019-05-12T12:21:17.257Z,31.91
2019-05-12T12:22:20.467Z,31.59
2019-05-12T12:23:17.230Z,31.01
2019-05-12T12:24:16.218Z,31.31
2019-05-12T12:25:16.207Z,30.61
2019-05-12T12:26:20.040Z,29.52
2019-05-12T12:27:16.187Z,31.34
2019-05-12T12:28:16.172Z,31.46
2019-05-12T12:29:16.164Z,31.57
2019-05-12T12:30:19.746Z,31.68
2019-05-12T12:31:16.154Z,32.29
2019-05-12T12:32:20.136Z,31.60
2019-05-12T12:33:16.132Z,31.82
2019-05-12T12:34:23.711Z,33.62
2019-05-12T12:35:17.097Z,33.94
2019-05-12T12:36:16.096Z,33.52
2019-05-12T12:37:18.975Z,34.11
2019-05-12T12:38:17.082Z,33.61
2019-05-12T12:39:16.054Z,32.90
2019-05-12T12:40:16.049Z,33.42
2019-05-12T12:41:16.044Z,33.23
2019-05-12T12:42:16.022Z,33.54
2019-05-12T12:43:16.011Z,34.74
2019-05-12T12:44:16.002Z,34.76
2019-05-12T12:45:15.991Z,34.44
2019-05-12T12:46:19.790Z,35.64
2019-05-12T12:47:16.966Z,36.03
2019-05-12T12:48:19.269Z,35.51
2019-05-12T12:49:16.945Z,35.82
2019-05-12T12:50:20.167Z,34.61
2019-05-12T12:51:17.559Z,34.21
2019-05-12T12:52:15.915Z,33.29
2019-05-12T12:53:15.902Z,33.20
2019-05-12T12:54:15.889Z,34.61
2019-05-12T12:55:15.880Z,33.71
2019-05-12T12:56:24.272Z,34.01
2019-05-12T12:57:19.134Z,33.51
2019-05-12T12:58:21.137Z,34.21
2019-05-12T12:59:16.838Z,33.72
2019-05-12T13:00:28.769Z,33.52
2019-05-12T13:01:26.700Z,34.92
2019-05-12T13:02:16.801Z,33.32
2019-05-12T13:03:19.654Z,33.22
2019-05-12T13:04:16.782Z,33.02
2019-05-12T13:05:15.768Z,33.34
2019-05-12T13:06:17.324Z,33.23
2019-05-12T13:07:15.748Z,33.36
2019-05-12T13:08:15.735Z,33.55
2019-05-12T13:09:23.894Z,33.87
2019-05-12T13:10:16.717Z,34.36
2019-05-12T13:11:15.713Z,35.16
2019-05-12T13:12:19.461Z,34.36
2019-05-12T13:13:15.681Z,34.06
2019-05-12T13:14:15.670Z,35.75
2019-05-12T13:15:15.664Z,35.61
2019-05-12T13:16:15.646Z,33.39
2019-05-12T13:17:15.648Z,34.98
2019-05-12T13:18:23.960Z,34.46
2019-05-12T13:19:17.293Z,35.53
2019-05-12T13:20:15.610Z,34.00
2019-05-12T13:21:15.594Z,32.58
2019-05-12T13:22:18.919Z,31.16
2019-05-12T13:23:15.573Z,31.57
2019-05-12T13:24:15.561Z,29.98
2019-05-12T13:25:15.553Z,31.40
2019-05-12T13:26:15.536Z,31.41
2019-05-12T13:27:19.290Z,31.62
2019-05-12T13:28:19.049Z,31.54
2019-05-12T13:29:15.505Z,32.56
2019-05-12T13:30:20.138Z,32.47
2019-05-12T13:31:16.482Z,32.17
2019-05-12T13:32:15.479Z,33.06
2019-05-12T13:33:18.229Z,33.12
2019-05-12T13:34:15.448Z,32.28
2019-05-12T13:35:19.841Z,32.06
2019-05-12T13:36:15.424Z,31.92
2019-05-12T13:37:19.328Z,30.18
2019-05-12T13:38:15.402Z,28.47
2019-05-12T13:39:16.508Z,28.85
2019-05-12T13:40:15.381Z,28.52
2019-05-12T13:41:19.786Z,27.50
2019-05-12T13:42:15.368Z,27.11
2019-05-12T13:43:19.358Z,27.42
2019-05-12T13:44:15.336Z,27.80
2019-05-12T13:45:16.346Z,28.18
2019-05-12T13:46:15.314Z,27.17
2019-05-12T13:47:15.316Z,26.46
2019-05-12T13:48:19.888Z,25.80
2019-05-12T13:49:15.280Z,26.40
2019-05-12T13:50:21.650Z,26.62
2019-05-12T13:51:16.256Z,27.59
2019-05-12T13:52:15.256Z,27.08
2019-05-12T13:53:15.254Z,27.66
2019-05-12T13:54:15.242Z,27.26
2019-05-12T13:55:15.216Z,26.75
2019-05-12T13:56:19.214Z,25.77
2019-05-12T13:57:16.200Z,25.29
2019-05-12T13:58:15.183Z,26.49
2019-05-12T13:59:20.539Z,27.09
2019-05-12T14:00:16.160Z,26.58
2019-05-12T14:01:19.863Z,25.80
2019-05-12T14:02:22.065Z,27.17
2019-05-12T14:03:16.126Z,26.86
2019-05-12T14:04:15.121Z,25.76
2019-05-12T14:05:15.511Z,25.16
2019-05-12T14:06:15.094Z,25.20
2019-05-12T14:07:19.912Z,25.93
2019-05-12T14:08:16.072Z,27.36
2019-05-12T14:09:15.061Z,27.49
2019-05-12T14:10:15.053Z,27.50
2019-05-12T14:11:18.414Z,27.73
2019-05-12T14:12:15.036Z,28.42
2019-05-12T14:13:15.017Z,28.42
2019-05-12T14:14:15.648Z,27.70
2019-05-12T14:15:14.997Z,29.27
2019-05-12T14:16:14.986Z,27.86
2019-05-12T14:17:14.984Z,27.14
2019-05-12T14:18:20.517Z,26.92
2019-05-12T14:19:15.950Z,25.61
2019-05-12T14:20:19.890Z,26.08
2019-05-12T14:21:15.949Z,25.50
2019-05-12T14:22:21.309Z,25.29
2019-05-12T14:23:15.907Z,25.39
2019-05-12T14:24:14.902Z,26.01
2019-05-12T14:25:15.453Z,25.93
2019-05-12T14:26:15.874Z,25.74
2019-05-12T14:27:19.081Z,25.87
2019-05-12T14:28:16.645Z,26.92
2019-05-12T14:29:14.845Z,27.56
2019-05-12T14:30:14.872Z,28.78
2019-05-12T14:31:26.941Z,27.09
2019-05-12T14:32:17.377Z,27.61
2019-05-12T14:33:18.129Z,28.82
2019-05-12T14:34:18.803Z,29.00
2019-05-12T14:35:15.777Z,27.78
2019-05-12T14:36:21.614Z,28.27
2019-05-12T14:37:17.638Z,27.44
2019-05-12T14:38:19.412Z,28.90
2019-05-12T14:39:15.733Z,27.37
2019-05-12T14:40:14.726Z,25.86
2019-05-12T14:41:14.715Z,26.34
2019-05-12T14:42:14.701Z,25.92
2019-05-12T14:43:16.805Z,25.31
2019-05-12T14:44:15.680Z,24.41
2019-05-12T14:45:19.391Z,24.53
2019-05-12T14:46:15.659Z,24.08
2019-05-12T14:47:19.116Z,25.81
2019-05-12T14:48:15.655Z,25.95
2019-05-12T14:49:14.626Z,26.98
2019-05-12T14:50:14.616Z,27.21
2019-05-12T14:51:14.603Z,27.61
2019-05-12T14:52:14.592Z,27.94
2019-05-12T14:53:14.655Z,29.25
2019-05-12T14:54:14.573Z,29.27
2019-05-12T14:55:14.561Z,30.19
2019-05-12T14:56:14.555Z,30.30
2019-05-12T14:57:14.536Z,30.71
2019-05-12T14:58:20.036Z,31.12
2019-05-12T14:59:15.516Z,31.43
2019-05-12T15:00:21.170Z,32.45
2019-05-12T15:01:15.491Z,32.17
2019-05-12T15:02:19.471Z,32.17
2019-05-12T15:03:16.421Z,31.88
2019-05-12T15:04:19.282Z,31.89
2019-05-12T15:05:15.470Z,32.20
2019-05-12T15:06:14.439Z,32.90
2019-05-12T15:07:15.322Z,33.01
2019-05-12T15:08:20.237Z,33.03
2019-05-12T15:09:19.663Z,33.33
2019-05-12T15:10:14.584Z,32.32
2019-05-12T15:11:14.382Z,31.84
2019-05-12T15:12:14.370Z,33.15
2019-05-12T15:13:14.370Z,33.04
2019-05-12T15:14:14.352Z,31.45
2019-05-12T15:15:20.081Z,33.67
2019-05-12T15:16:15.325Z,33.67
2019-05-12T15:17:23.006Z,33.68
2019-05-12T15:18:16.090Z,33.38
2019-05-12T15:19:14.295Z,33.59
2019-05-12T15:20:14.288Z,34.00
2019-05-12T15:21:14.270Z,34.41
2019-05-12T15:22:14.911Z,33.90
2019-05-12T15:23:14.550Z,33.81
2019-05-12T15:24:18.593Z,34.12
2019-05-12T15:25:14.747Z,34.74
2019-05-12T15:26:17.116Z,34.72
2019-05-12T15:27:15.203Z,35.65
2019-05-12T15:28:14.582Z,34.74
2019-05-12T15:29:19.894Z,35.85
2019-05-12T15:30:22.401Z,36.57
2019-05-12T15:31:15.160Z,35.95
2019-05-12T15:32:15.482Z,37.48
2019-05-12T15:33:14.138Z,36.35
2019-05-12T15:34:14.425Z,36.68
2019-05-12T15:35:14.113Z,36.88
2019-05-12T15:36:14.103Z,36.57
2019-05-12T15:37:14.091Z,35.97
2019-05-12T15:38:15.352Z,36.57
2019-05-12T15:39:14.193Z,37.48
2019-05-12T15:40:14.682Z,37.89
2019-05-12T15:41:16.859Z,36.88
2019-05-12T15:42:15.030Z,37.08
2019-05-12T15:43:14.067Z,37.59
2019-05-12T15:44:14.741Z,37.18
2019-05-12T15:45:16.634Z,38.19
2019-05-12T15:46:16.453Z,36.77
2019-05-12T15:47:13.982Z,36.19
2019-05-12T15:48:14.540Z,36.79
2019-05-12T15:49:13.966Z,36.27
2019-05-12T15:50:14.691Z,36.68
2019-05-12T15:51:13.927Z,36.37
2019-05-12T15:52:14.425Z,36.39
2019-05-12T15:53:22.038Z,35.97
2019-05-12T15:54:14.900Z,36.69
2019-05-12T15:55:13.945Z,37.70
2019-05-12T15:56:21.005Z,37.81
2019-05-12T15:57:14.857Z,37.70
2019-05-12T15:58:14.321Z,37.60
2019-05-12T15:59:14.673Z,37.50
2019-05-12T16:00:16.958Z,37.70
2019-05-12T16:01:16.867Z,37.81
2019-05-12T16:02:16.849Z,37.81
2019-05-12T16:03:13.790Z,37.60
2019-05-12T16:04:15.248Z,37.70
2019-05-12T16:05:14.489Z,37.40
2019-05-12T16:06:14.967Z,37.81
2019-05-12T16:07:14.200Z,37.81
2019-05-12T16:08:14.358Z,36.99
2019-05-12T16:09:13.737Z,37.50
2019-05-12T16:10:14.422Z,37.32
2019-05-12T16:11:14.120Z,37.62
2019-05-12T16:12:20.006Z,39.02
2019-05-12T16:13:15.871Z,37.50
2019-05-12T16:14:13.676Z,37.30
2019-05-12T16:15:17.388Z,37.30
2019-05-12T16:16:14.380Z,37.40
2019-05-12T16:17:16.822Z,37.32
2019-05-12T16:18:14.623Z,36.90
2019-05-12T16:19:14.727Z,37.10
2019-05-12T16:20:14.400Z,37.40
2019-05-12T16:21:14.475Z,37.60
2019-05-12T16:22:14.056Z,39.02
2019-05-12T16:23:17.238Z,39.52
2019-05-12T16:24:15.701Z,38.92
2019-05-12T16:25:15.229Z,38.51
2019-05-12T16:26:15.386Z,38.92
2019-05-12T16:27:14.142Z,38.73
2019-05-12T16:28:18.551Z,39.04
2019-05-12T16:29:14.502Z,39.14
2019-05-12T16:30:13.929Z,40.35
2019-05-12T16:31:14.509Z,38.53
2019-05-12T16:32:26.254Z,38.73
2019-05-12T16:33:20.554Z,38.85
2019-05-12T16:34:14.444Z,39.66
2019-05-12T16:35:14.441Z,39.56
2019-05-12T16:36:14.510Z,39.46
2019-05-12T16:37:14.089Z,39.06
2019-05-12T16:38:18.407Z,38.85
2019-05-12T16:39:14.391Z,39.15
2019-05-12T16:40:13.850Z,38.85
2019-05-12T16:41:14.227Z,38.95
2019-05-12T16:42:14.040Z,38.75
2019-05-12T16:43:14.418Z,39.37
2019-05-12T16:44:22.878Z,39.07
2019-05-12T16:45:14.705Z,39.46
2019-05-12T16:46:14.214Z,38.87
2019-05-12T16:47:18.361Z,39.68
2019-05-12T16:48:28.979Z,39.07
2019-05-12T16:49:14.274Z,38.67
2019-05-12T16:50:15.929Z,38.67
2019-05-12T16:51:14.250Z,39.19
2019-05-12T16:52:13.806Z,39.50
2019-05-12T16:53:21.513Z,39.60
2019-05-12T16:54:14.228Z,38.68
2019-05-12T16:55:13.217Z,38.59
2019-05-12T16:56:14.749Z,38.59
2019-05-12T16:57:18.001Z,39.39
2019-05-12T16:58:14.172Z,38.89
2019-05-12T16:59:17.187Z,38.89
2019-05-12T17:00:14.401Z,38.81
2019-05-12T17:01:14.414Z,38.59
2019-05-12T17:02:13.750Z,39.51
2019-05-12T17:03:14.460Z,39.92
2019-05-12T17:04:13.535Z,39.90
2019-05-12T17:05:20.088Z,40.63
2019-05-12T17:06:14.416Z,40.43
2019-05-12T17:07:17.216Z,41.54
2019-05-12T17:08:14.121Z,40.43
2019-05-12T17:09:13.444Z,39.82
2019-05-12T17:10:16.622Z,40.43
2019-05-12T17:11:24.192Z,41.44
2019-05-12T17:12:14.713Z,41.74
2019-05-12T17:13:15.853Z,41.14
2019-05-12T17:14:13.007Z,41.26
2019-05-12T17:15:14.891Z,41.16
2019-05-12T17:16:13.774Z,41.46
2019-05-12T17:17:14.453Z,42.68
2019-05-12T17:18:13.703Z,41.97
2019-05-12T17:19:15.289Z,42.17
2019-05-12T17:20:13.880Z,42.69
2019-05-12T17:21:14.272Z,42.39
2019-05-12T17:22:13.442Z,42.60
2019-05-12T17:23:13.860Z,42.09
2019-05-12T17:24:14.640Z,42.29
2019-05-12T17:25:15.432Z,43.10
2019-05-12T17:26:13.901Z,42.69
2019-05-12T17:27:15.869Z,43.20
2019-05-12T17:28:13.829Z,43.61
2019-05-12T17:29:13.662Z,43.51
2019-05-12T17:30:13.562Z,43.30
2019-05-12T17:31:12.809Z,43.41
2019-05-12T17:32:13.428Z,43.61
2019-05-12T17:33:22.297Z,43.41
2019-05-12T17:34:14.244Z,43.91
2019-05-12T17:35:14.623Z,43.91
2019-05-12T17:36:17.550Z,43.71
2019-05-12T17:37:14.533Z,44.32
2019-05-12T17:38:19.715Z,44.22
2019-05-12T17:39:13.926Z,44.22
2019-05-12T17:40:15.579Z,44.12
2019-05-12T17:41:17.373Z,43.71
2019-05-12T17:42:21.331Z,43.91
2019-05-12T17:43:13.675Z,43.61
2019-05-12T17:44:13.578Z,43.29
2019-05-12T17:45:15.811Z,43.71
2019-05-12T17:46:18.147Z,42.39
2019-05-12T17:47:21.050Z,42.69
2019-05-12T17:48:14.310Z,41.99
2019-05-12T17:49:15.737Z,42.09
2019-05-12T17:50:13.919Z,43.00
2019-05-12T17:51:13.711Z,42.37
2019-05-12T17:52:18.004Z,41.97
2019-05-12T17:53:14.137Z,42.27
2019-05-12T17:54:21.014Z,42.09
2019-05-12T17:55:14.530Z,43.18
2019-05-12T17:56:13.936Z,42.68
2019-05-12T17:57:17.786Z,41.97
2019-05-12T17:58:13.830Z,41.46
2019-05-12T17:59:16.952Z,42.17
2019-05-12T18:00:14.066Z,42.78
2019-05-12T18:01:14.307Z,42.27
2019-05-12T18:02:16.735Z,42.37
2019-05-12T18:03:20.883Z,42.68
2019-05-12T18:04:14.053Z,41.46
2019-05-12T18:05:15.655Z,41.26
2019-05-12T18:06:14.163Z,42.17
2019-05-12T18:07:18.551Z,41.26
2019-05-12T18:08:14.205Z,41.86
2019-05-12T18:09:15.754Z,41.86
2019-05-12T18:10:13.656Z,41.86
2019-05-12T18:11:15.785Z,41.97
2019-05-12T18:12:13.870Z,41.99
2019-05-12T18:13:15.051Z,42.29
2019-05-12T18:14:14.488Z,41.68
2019-05-12T18:15:14.716Z,41.36
2019-05-12T18:16:20.750Z,41.68
2019-05-12T18:17:14.263Z,41.38
2019-05-12T18:18:14.344Z,41.99
2019-05-12T18:19:17.664Z,41.88
2019-05-12T18:20:14.345Z,42.69
2019-05-12T18:21:21.110Z,42.69
2019-05-12T18:22:14.211Z,42.19
2019-05-12T18:23:13.451Z,43.00
2019-05-12T18:24:14.168Z,42.19
2019-05-12T18:25:14.374Z,43.41
2019-05-12T18:26:16.087Z,42.39
2019-05-12T18:27:13.675Z,42.29
2019-05-12T18:28:13.988Z,42.60
2019-05-12T18:29:14.526Z,42.09
2019-05-12T18:30:14.382Z,42.19
2019-05-12T18:31:13.866Z,42.82
2019-05-12T18:32:13.861Z,43.84
2019-05-12T18:33:13.780Z,43.12
2019-05-12T18:34:13.872Z,43.32
2019-05-12T18:35:13.676Z,43.53
2019-05-12T18:36:14.209Z,44.04
2019-05-12T18:37:13.607Z,44.74
2019-05-12T18:38:18.151Z,43.93
2019-05-12T18:39:15.280Z,44.54
2019-05-12T18:40:14.459Z,43.93
2019-05-12T18:41:13.924Z,44.04
2019-05-12T18:42:14.019Z,44.34
2019-05-12T18:43:13.995Z,44.04
2019-05-12T18:44:18.106Z,44.36
2019-05-12T18:45:17.544Z,44.44
2019-05-12T18:46:14.029Z,44.67
2019-05-12T18:47:14.451Z,44.97
2019-05-12T18:48:19.911Z,44.46
2019-05-12T18:49:15.934Z,44.56
2019-05-12T18:50:14.147Z,44.36
2019-05-12T18:51:16.796Z,44.46
2019-05-12T18:52:14.609Z,44.67
2019-05-12T18:53:14.434Z,44.46
2019-05-12T18:54:15.059Z,44.99
2019-05-12T18:55:11.844Z,44.79
2019-05-12T18:56:19.971Z,44.99
2019-05-12T18:57:12.839Z,45.40
2019-05-12T18:58:14.630Z,46.13
2019-05-12T18:59:15.563Z,46.44
2019-05-12T19:00:13.270Z,46.64
2019-05-12T19:01:13.955Z,46.21
2019-05-12T19:02:14.626Z,46.74
2019-05-12T19:03:14.060Z,46.53
2019-05-12T19:04:14.164Z,46.74
2019-05-12T19:05:12.957Z,47.45
2019-05-12T19:06:14.117Z,47.58
2019-05-12T19:07:11.717Z,47.27
2019-05-12T19:08:13.823Z,47.17
2019-05-12T19:09:13.704Z,47.27
2019-05-12T19:10:13.992Z,47.47
2019-05-12T19:11:19.863Z,47.60
2019-05-12T19:12:18.017Z,47.47
2019-05-12T19:13:12.688Z,47.09
2019-05-12T19:14:13.500Z,47.29
2019-05-12T19:15:17.221Z,47.09
2019-05-12T19:16:14.391Z,47.90
2019-05-12T19:17:13.840Z,47.70
2019-05-12T19:18:17.326Z,48.74
2019-05-12T19:19:18.425Z,48.92
2019-05-12T19:20:13.460Z,48.84
2019-05-12T19:21:16.650Z,48.64
2019-05-12T19:22:14.128Z,48.33
2019-05-12T19:23:13.619Z,48.84
2019-05-12T19:24:17.519Z,49.45
2019-05-12T19:25:14.683Z,49.04
2019-05-12T19:26:13.617Z,49.65
2019-05-12T19:27:16.616Z,48.94
2019-05-12T19:28:13.458Z,49.15
2019-05-12T19:29:13.997Z,49.45
2019-05-12T19:30:13.653Z,48.96
2019-05-12T19:31:11.440Z,48.84
2019-05-12T19:32:11.454Z,48.66
2019-05-12T19:33:13.560Z,49.37
2019-05-12T19:34:19.922Z,49.88
2019-05-12T19:35:15.879Z,49.88
2019-05-12T19:36:13.621Z,49.88
2019-05-12T19:37:11.399Z,49.29
2019-05-12T19:38:15.227Z,49.07
2019-05-12T19:39:11.349Z,49.19
2019-05-12T19:40:13.998Z,49.19
2019-05-12T19:41:13.785Z,49.80
2019-05-12T19:42:17.053Z,49.40
2019-05-12T19:43:14.207Z,49.50
2019-05-12T19:44:13.285Z,50.31
2019-05-12T19:45:16.146Z,49.70
2019-05-12T19:46:13.592Z,50.62
2019-05-12T19:47:13.646Z,49.80
2019-05-12T19:48:23.095Z,49.93
2019-05-12T19:49:12.252Z,50.84
2019-05-12T19:50:15.759Z,51.25
2019-05-12T19:51:21.836Z,51.15
2019-05-12T19:52:14.038Z,51.05
2019-05-12T19:53:13.196Z,50.64
2019-05-12T19:54:11.178Z,50.84
2019-05-12T19:55:11.211Z,50.95
2019-05-12T19:56:11.152Z,50.95
2019-05-12T19:57:15.557Z,51.25
2019-05-12T19:58:12.699Z,51.05
2019-05-12T19:59:11.127Z,51.07
2019-05-12T20:00:13.643Z,50.87